KFAT/FAT METAR and TAF weather

Enter ICAO airport designator
Station Type Date Time Source
KFAT METAR 2021/05/14 03:53 UTC NOAA

KFAT 140353Z 31009KT 10SM SCT250 29/04 A2988 RMK AO2 SLP113 T02940039


Station Type Date Time Source
KFAT Decoded METAR 2021/05/14 03:53 UTC NOAA

FRESNO AIR TERMINAL, CA, United States (KFAT) 36-47N 119-43W 104M
May 13, 2021 - 11:53 PM EDT / 2021.05.14 0353 UTC
Wind: from the NW (310 degrees) at 10 MPH (9 KT):0
Visibility: 10 mile(s):0
Sky conditions: partly cloudy
Temperature: 84.9 F (29.4 C)
Dew Point: 39.0 F (3.9 C)
Relative Humidity: 19%
Pressure (altimeter): 29.88 in. Hg (1011 hPa)
ob: KFAT 140353Z 31009KT 10SM SCT250 29/04 A2988 RMK AO2 SLP113 T02940039
cycle: 4

Station Type Date Time Source
KFAT TAF 2021/05/13 18:21 UTC NOAA

TAF KFAT 131720Z 1318/1418 31008KT P6SM SKC

Example: see airport list